Latest Observation

42 Stations

15 Minute Data | America/Los_Angeles
as of 9/5/26 10:46 AM PDT
Station Date Time Temp (°F) RH (%) Dew Pt (°F) Wind Spd (mph) Wind Dir (°) Wind Gust (mph) Latest Rain (In) Daily Rain (In) Daily Min Temp (°F) Daily Max Temp (°F) Daily Max Wind (mph)
Elk Mt. Farm 8/13/26 1500 85.6   7.4 - - - - - - - 51.4   1.1 85.6   7.4 -
Upper Lake 9/5/26 1045 66.7   3.3 58   3 51.6   4.4 2.2 SSW | 198 7.7   2.0 0.00 0.00 40.8   1.3 68.0   4.0 7.7   2.0
Scotts Valley 9/5/26 1045 69.1   4.0 53   8 51.2   7.9 2.9 SE | 132 6.9   1.6 0.00 0.00 36.4   1.6 69.6   3.5 6.9   1.6
Scotts Valley-South (Bella Vista) 9/5/26 1045 68.2   4.0 49   2 48.4   4.7 1.8 SE | 142 4.6   1.9 0.00 0.00 41.3   2.4 68.7   4.1 5.7   0.8
Kelseyville 9/5/26 1045 64.9   3.2 66   7 53.2   6.0 3.1 N | 5 6.6   2.0 0.00 0.00 40.6   0.5 65.7   3.3 7.2   1.3
Kelseyville Remote 9/5/26 1045 66.4   3.6 58   7 51.3   6.8 - - - 0.00 0.00 42.2   0.1 66.5   3.0 -
Kelseyville (Clark Drive) 9/5/26 1045 67.1   4.4 - - - - - 0.00 0.00 38.4   2.8 68.2   4.6 -
Kelsey Bench (Oaklea) 9/5/26 1045 66.2   5.3 54   6 48.9   2.1 3.2 NE | 35 6.2   1.2 0.00 0.00 44.9   1.1 67.1   5.4 6.8   0.7
Smith Lane (Kelseyville-South) 9/5/26 1045 71.0   6.2 49   9 50.9   1.4 1.9 ENE | 61 5.4   0.6 0.00 0.00 39.1   0.1 71.0   6.0 6.5   0.6
Bell Hill-West 9/5/26 1045 67.1   5.7 62   8 53.6   2.0 3.8 N | 2 7.4   0.3 0.00 0.00 41.9   0.8 67.9   5.5 7.4   0.3
High Valley Ridgeline (Brassfield) 9/3/26 1430 64.3   0.5 52   2 46.4   1.6 12.2 WSW | 242 17.9   7.4 0.00 0.01 55.0   3.7 66.3   0.1 20.5   5.3
Wight Way (Adobe Creek) 9/5/26 1000 70.1   6.6 49   11 50.2   0.7 1.3 NE | 41 4.9   2.3 0.00 0.00 38.5   0.9 70.1   6.0 5.7   2.3
Ridgeline Top (Brassfield) 9/3/26 1430 66.6   0.4 - - - - - - - 54.8   3.7 69.7   1.1 -
Ridgeline Low (Brassfield) 9/3/26 1430 66.8   0.7 - - - - - - - 56.8   4.6 67.8   0.9 -
Long Valley (Shannon) 6/29/26 1400 84.9   4.6 25   1 44.9   3.2 2.9 ENE | 75 10.2   0.4 0.00 0.00 46.4   0.4 86.9   6.5 13.7   1.8
High Valley Winery 9/3/26 1430 65.6   2.0 49   1 45.9   1.2 9.6 WSW | 238 17.0   7.0 0.00 0.01 57.3   4.2 67.3   2.2 17.0   1.1
Round Mtn Rd. 9/5/26 0215 48.6   0.8 - - - - - - - 47.2   2.0 49.3   2.3 -
Circle O 9/5/26 1045 67.8   6.7 - - - - - - - 41.4   2.5 68.9   7.0 -
Robertsbridge Vineyards 9/5/26 1045 68.6   7.0 43   11 45.0   0.6 - - - - - 41.2   2.5 69.4   6.9 -
Urgency Vineyard 9/5/26 1045 68.1   3.4 35   10 39.2   3.2 3.3 NNE | 23 6.2   1.3 0.00 0.00 39.5   3.6 68.1   3.4 7.8   2.0
Red Hills (Beckstoffer) 9/5/26 1045 70.9   8.0 35   12 42.1   0.6 - - - 0.00 0.00 35.6   5.8 70.9   7.3 -
Winters (Shannon) 9/5/26 1045 67.7   5.7 37   7 40.5   0.8 2.7 N | 355 6.6   2.3 0.00 0.00 34.6   2.5 67.7   4.8 7.5   7.4
Secret Pond (Shannon) 9/5/26 1045 65.8   3.8 40   3 40.8   1.9 2.8 S | 182 8.0   2.9 0.00 0.00 39.6   1.8 66.8   4.3 8.0   4.5
Rolling Knolls (Shannon) 9/5/26 1045 70.7   5.4 39   14 44.8   3.3 1.9 NW | 311 4.7   1.5 0.00 0.00 40.6   4.1 70.7   4.6 4.7   8.3
Lower Lake 9/5/26 1045 68.5   5.2 43   17 45.4   4.0 2.7 NE | 49 6.9   3.3 0.00 0.00 45.7   1.3 69.3   5.6 6.9   7.4
Adamson Ranch 9/5/26 1045 70.8   4.4 39   9 44.4   1.3 2.4 SE | 145 7.2   0.9 0.00 0.00 40.2   0.4 70.8   4.2 7.2   1.3
Middletown (Diamond D) 9/5/26 1045 70.1   3.2 47   6 48.7   0.1 3.6 NNW | 348 6.9   0.2 0.00 0.00 43.7   1.5 70.4   2.5 6.9   0.2
Middletown-West (Domaine Helena) 9/5/26 1045 71.2   2.7 41   6 46.5   1.3 2.5 ESE | 114 7.0   2.1 0.00 0.00 39.4   0.5 71.8   3.3 7.0   3.9
Middletown-South 9/5/26 1045 71.0   4.4 41   6 45.8   0.1 2.4 N | 11 7.6   2.1 0.00 0.00 44.6   0.6 71.5   4.2 7.6   1.8
Jim Davis (Langtry) 9/5/26 1045 70.1   3.5 45   8 48.1   1.1 2.8 E | 79 6.6   1.1 0.00 0.00 47.5   1.5 70.5   3.8 8.0   1.1
Napa Valley Basin 9/5/26 1045 71.3   3.3 47   8 50.1   1.0 2.6 ENE | 75 6.4   0.7 0.00 0.00 38.8   0.6 72.3   3.4 6.4   0.7
Lower Bohn 9/5/26 1045 70.1   2.4 47   4 48.9   0.3 3.4 NNE | 31 8.6   4.1 0.00 0.00 38.1   1.2 71.4   1.9 8.6   0.1
Upper Bohn-North 9/5/26 1045 72.9   4.3 40   7 47.5   0.5 1.9 WSW | 242 5.9   1.8 0.00 0.00 46.3   1.5 73.6   3.2 5.9   0.6
Snell Peak Blk#9 9/5/26 1045 71.4   1.7 41   3 46.8   0.4 2.7 SSE | 153 6.5   2.3 0.00 0.00 51.4   3.2 72.3   2.6 6.5   0.7
Coyote Lake West 9/5/26 1045 71.2   3.8 48   7 50.8   0.1 2.5 SSE | 167 7.9   0.1 0.00 0.00 46.8   1.9 71.2   3.6 7.9   0.1
Coyote Lake Northeast 9/5/26 1045 72.7   4.7 47   7 51.4   0.5 - - - - - 47.0   0.5 72.7   4.7 -
Coyote Lake East 9/5/26 1045 71.8   3.5 48   5 51.0   0.3 - - - - - 40.3   0.4 72.5   3.6 -
Morgan Valley 9/5/26 1045 65.2   6.7 49   24 45.6   4.3 4.7 ENE | 63 9.8   6.0 0.00 0.00 52.0   3.9 66.6   7.5 12.0   1.6
Mine Pit North 9/5/26 1045 68.9   5.5 43   11 45.3   1.0 5.5 N | 358 12.3   6.0 - - 48.3   2.1 70.2   5.2 12.3   1.5
Mine Pit South 9/5/26 1045 67.7   1.0 44   6 45.1   2.2 3.4 NNW | 332 7.8   6.0 0.00 0.00 50.9   0.7 68.5   0.1 12.3   1.5
Cow Mountain 9/5/26 1045 59.8   9.9 - - 8.3 E | 86 15.1   3.5 0.00 0.00 51.4   7.8 62.0   11.6 16.2   1.3
Ukiah-SE (Ruddick) 9/5/26 1045 65.1   2.2 58   3 49.9   0.6 1.8 NNW | 346 5.0   2.0 0.00 0.00 41.4   0.7 66.1   2.2 6.4   0.5
Max     72.9 66 53.6 8.3 - 15.1 0.00 0.00 52.0 73.6 16.2
Avg     68.7 47 47.6 3.0 - 7.2 0.00 - - - -
Min     59.8 35 39.2 1.3 - 4.6 0.00 0.00 34.6 62.0 4.7